Time;durP1;ratioP1;P1;durP2;ratioP2;P2;SDS_P1;SDS_P2;PMS_P1;PMS_P2;Temp;Humidity;BMP_temperature;BMP_pressure;BME280_temperature;BME280_humidity;BME280_pressure;Samples;Min_cycle;Max_cycle;Signal;HPM_P1;HPM_P2
2022/09/15 00:02:09;;;;;;;8.45;2.10;;;14.90;99.90;;;;;;5072376;28;20441;-59
2022/09/15 00:04:35;;;;;;;7.80;1.67;;;15.00;99.90;;;;;;5073888;28;20040;-59
2022/09/15 00:07:01;;;;;;;8.18;2.00;;;15.00;99.90;;;;;;5073128;28;20045;-59
2022/09/15 00:09:26;;;;;;;5.65;1.20;;;15.00;99.90;;;;;;5072908;28;20040;-59
2022/09/15 00:11:52;;;;;;;4.93;1.30;;;15.00;99.90;;;;;;5074246;28;20469;-59
2022/09/15 00:14:18;;;;;;;6.88;1.35;;;15.10;99.90;;;;;;5057238;28;20120;-59
2022/09/15 00:16:44;;;;;;;6.43;1.30;;;15.10;99.90;;;;;;5072955;28;20067;-58
2022/09/15 00:19:09;;;;;;;4.50;1.10;;;15.10;99.90;;;;;;5074817;28;20041;-59
2022/09/15 00:21:38;;;;;;;4.60;1.00;;;15.20;99.90;;;;;;5074512;28;20061;-59
2022/09/15 00:24:10;;;;;;;3.60;1.10;;;15.20;99.90;;;;;;5072202;28;20060;-59
2022/09/15 00:26:36;;;;;;;5.60;1.00;;;15.30;99.90;;;;;;5074933;28;20078;-58
2022/09/15 00:29:03;;;;;;;3.47;1.17;;;15.30;99.90;;;;;;5073423;28;20040;-59
2022/09/15 00:31:30;;;;;;;3.70;1.20;;;15.30;99.90;;;;;;5074412;28;20436;-59
2022/09/15 00:33:57;;;;;;;6.80;1.15;;;15.30;99.90;;;;;;5055952;28;20036;-59
2022/09/15 00:36:25;;;;;;;5.05;1.13;;;15.30;99.90;;;;;;5073643;28;20116;-59
2022/09/15 00:38:51;;;;;;;7.45;1.27;;;15.40;99.90;;;;;;5073228;28;20044;-59
2022/09/15 00:41:19;;;;;;;5.00;1.25;;;15.40;99.90;;;;;;5073994;28;20047;-59
2022/09/15 00:43:58;;;;;;;3.17;1.00;;;15.40;99.90;;;;;;5073391;28;20055;-59
2022/09/15 00:46:28;;;;;;;5.93;1.40;;;15.40;99.90;;;;;;5074031;28;20051;-59
2022/09/15 00:49:09;;;;;;;4.30;1.33;;;15.40;99.90;;;;;;5073800;28;20076;-59
2022/09/15 00:51:41;;;;;;;8.38;1.30;;;15.40;99.90;;;;;;5073520;28;20052;-59
2022/09/15 00:54:13;;;;;;;6.85;1.30;;;15.40;99.90;;;;;;5073780;28;20477;-59
2022/09/15 00:56:40;;;;;;;6.22;1.33;;;15.40;99.90;;;;;;5074133;28;20036;-59
2022/09/15 00:59:10;;;;;;;5.18;1.33;;;15.40;99.90;;;;;;5054891;28;20166;-59
2022/09/15 01:01:35;;;;;;;5.15;1.40;;;15.40;99.90;;;;;;5073918;28;20050;-59
2022/09/15 01:04:01;;;;;;;5.57;1.23;;;15.40;99.90;;;;;;5038399;28;20044;-59
2022/09/15 01:06:36;;;;;;;7.45;1.50;;;15.40;99.90;;;;;;5055991;28;20045;-59
2022/09/15 01:09:13;;;;;;;7.97;1.83;;;15.40;99.90;;;;;;5055491;28;20040;-60
2022/09/15 01:11:39;;;;;;;8.73;2.17;;;15.40;99.90;;;;;;5071768;28;20052;-59
2022/09/15 01:14:05;;;;;;;12.05;1.85;;;15.40;99.90;;;;;;5073231;28;20040;-59
2022/09/15 01:16:37;;;;;;;10.15;1.58;;;15.50;99.90;;;;;;5039239;28;20043;-59
2022/09/15 01:19:43;;;;;;;7.45;1.52;;;15.40;99.90;;;;;;5054357;28;20098;-59
2022/09/15 01:22:31;;;;;;;6.68;1.75;;;15.50;99.90;;;;;;5055082;28;20079;-59
2022/09/15 01:25:31;;;;;;;5.65;1.13;;;15.40;99.90;;;;;;5073097;28;20106;-59
2022/09/15 01:28:06;;;;;;;8.23;1.45;;;15.40;99.90;;;;;;5055037;28;20040;-59
2022/09/15 01:30:37;;;;;;;6.03;2.20;;;15.40;99.90;;;;;;5073454;28;20110;-59
2022/09/15 01:33:28;;;;;;;9.10;1.60;;;15.40;99.90;;;;;;5071751;28;20040;-59
2022/09/15 01:35:53;;;;;;;9.80;1.83;;;15.40;99.90;;;;;;5055294;28;20040;-58
2022/09/15 01:38:28;;;;;;;7.53;1.60;;;15.30;99.90;;;;;;5073337;28;20400;-58
2022/09/15 01:41:12;;;;;;;7.47;1.60;;;15.20;99.90;;;;;;5054458;28;20434;-59
2022/09/15 01:43:48;;;;;;;6.13;1.58;;;15.10;99.90;;;;;;5055629;28;20093;-59
2022/09/15 01:46:15;;;;;;;7.40;1.60;;;15.10;99.90;;;;;;5054511;28;20490;-59
2022/09/15 01:48:42;;;;;;;5.50;1.85;;;15.10;99.90;;;;;;5072066;28;20036;-59
2022/09/15 01:51:08;;;;;;;9.10;2.28;;;15.00;99.90;;;;;;5072280;28;20040;-59
2022/09/15 01:53:34;;;;;;;9.63;1.30;;;15.00;99.90;;;;;;5071160;28;20051;-59
2022/09/15 01:56:06;;;;;;;9.15;1.95;;;15.00;99.90;;;;;;5072241;28;20039;-59
2022/09/15 01:58:33;;;;;;;6.90;1.73;;;15.00;99.90;;;;;;5072884;28;20552;-59
2022/09/15 02:01:17;;;;;;;5.78;1.52;;;15.00;99.90;;;;;;5071674;28;20048;-59
2022/09/15 02:03:43;;;;;;;6.53;1.52;;;15.00;99.90;;;;;;5055027;28;20047;-58
2022/09/15 02:06:43;;;;;;;4.72;1.02;;;15.00;99.90;;;;;;5054392;28;20048;-58
2022/09/15 02:09:18;;;;;;;7.50;1.25;;;15.00;99.90;;;;;;5053518;28;20060;-59
2022/09/15 02:11:58;;;;;;;;;;;15.00;99.90;;;;;;5071866;28;20048;-58
2022/09/15 02:14:34;;;;;;;5.55;1.40;;;15.00;99.90;;;;;;5070736;28;20018;-59
2022/09/15 02:17:01;;;;;;;6.22;1.10;;;15.00;99.90;;;;;;5054316;28;20047;-59
2022/09/15 02:19:34;;;;;;;5.53;1.27;;;15.00;99.90;;;;;;5071290;28;20488;-59
2022/09/15 02:22:16;;;;;;;2.67;1.05;;;15.00;99.90;;;;;;5071112;28;20052;-59
2022/09/15 02:24:53;;;;;;;3.17;1.25;;;15.00;99.90;;;;;;5071376;28;20127;-59
2022/09/15 02:27:23;;;;;;;6.32;1.13;;;15.00;99.90;;;;;;5071268;28;20052;-59
2022/09/15 02:29:53;;;;;;;4.68;1.30;;;15.00;99.90;;;;;;5071277;28;20042;-59
2022/09/15 02:32:22;;;;;;;9.40;1.90;;;15.00;99.90;;;;;;5071063;28;20222;-58
2022/09/15 02:34:50;;;;;;;5.47;1.50;;;15.00;99.90;;;;;;5071915;28;20076;-59
2022/09/15 02:37:20;;;;;;;5.97;2.10;;;14.90;99.90;;;;;;5071675;28;20044;-58
2022/09/15 02:39:53;;;;;;;6.60;1.92;;;14.90;99.90;;;;;;5037512;28;20044;-59
2022/09/15 02:42:38;;;;;;;8.85;1.60;;;14.90;99.90;;;;;;5072550;28;20063;-59
2022/09/15 02:45:05;;;;;;;7.38;1.58;;;14.90;99.90;;;;;;5070814;28;20393;-59
2022/09/15 02:47:30;;;;;;;4.10;1.50;;;14.90;99.90;;;;;;5072304;28;20042;-58
2022/09/15 02:49:56;;;;;;;7.60;2.08;;;14.90;99.90;;;;;;5070927;28;20448;-59
2022/09/15 02:52:22;;;;;;;6.95;1.63;;;14.90;99.90;;;;;;5054498;28;20041;-59
2022/09/15 02:54:49;;;;;;;6.18;2.00;;;14.90;99.90;;;;;;5071909;28;20036;-59
2022/09/15 02:57:15;;;;;;;5.80;1.52;;;14.90;99.90;;;;;;5071486;28;20045;-59
2022/09/15 03:02:25;;;;;;;7.38;1.65;;;15.00;99.90;;;;;;5072374;28;20109;-59
2022/09/15 03:04:51;;;;;;;6.18;1.65;;;15.10;99.90;;;;;;5075131;28;20070;-59
2022/09/15 03:07:17;;;;;;;6.55;1.70;;;15.10;99.90;;;;;;5074974;28;20503;-59
2022/09/15 03:09:43;;;;;;;7.45;1.58;;;15.20;99.90;;;;;;5074756;28;20167;-59
2022/09/15 03:12:09;;;;;;;8.82;1.63;;;15.20;99.90;;;;;;5074771;28;20117;-59
2022/09/15 03:14:35;;;;;;;7.30;1.75;;;15.30;99.90;;;;;;5058311;28;20125;-58
2022/09/15 03:17:01;;;;;;;6.72;1.25;;;15.30;99.90;;;;;;5057955;28;20064;-59
2022/09/15 03:19:27;;;;;;;6.53;1.35;;;15.30;99.90;;;;;;5040604;28;20717;-59
2022/09/15 03:21:53;;;;;;;4.40;1.48;;;15.30;99.90;;;;;;5073855;28;20526;-59
2022/09/15 03:24:19;;;;;;;6.03;1.35;;;15.30;99.90;;;;;;5075854;28;20032;-59
2022/09/15 03:26:45;;;;;;;7.15;1.77;;;15.30;99.90;;;;;;5075069;28;20045;-59
2022/09/15 03:29:11;;;;;;;9.65;2.47;;;15.20;99.90;;;;;;5075730;28;20044;-59
2022/09/15 03:31:37;;;;;;;5.97;1.67;;;15.20;99.90;;;;;;5075083;28;20447;-59
2022/09/15 03:34:08;;;;;;;7.13;1.50;;;15.10;99.90;;;;;;5057223;28;20067;-59
2022/09/15 03:36:33;;;;;;;7.35;2.17;;;15.10;99.90;;;;;;5058044;28;20477;-59
2022/09/15 03:38:59;;;;;;;6.75;2.03;;;15.10;99.90;;;;;;5074341;28;20036;-59
2022/09/15 03:41:26;;;;;;;9.60;1.90;;;15.10;99.90;;;;;;5057766;28;20106;-59
2022/09/15 03:43:53;;;;;;;5.63;1.50;;;15.00;99.90;;;;;;5057032;28;20511;-60
2022/09/15 03:46:19;;;;;;;8.15;1.65;;;15.00;99.90;;;;;;5074644;28;20036;-59
2022/09/15 03:48:46;;;;;;;5.53;1.40;;;15.00;99.90;;;;;;5075224;28;20036;-58
2022/09/15 03:51:12;;;;;;;7.90;1.60;;;15.00;99.90;;;;;;5040909;28;20473;-59
2022/09/15 03:53:40;;;;;;;4.95;1.42;;;14.90;99.90;;;;;;5074668;28;20124;-59
2022/09/15 03:56:24;;;;;;;7.28;2.28;;;14.90;99.90;;;;;;5074785;28;20048;-59
2022/09/15 03:58:51;;;;;;;5.68;1.50;;;14.90;99.90;;;;;;5073259;28;20076;-59
2022/09/15 04:01:17;;;;;;;5.93;1.50;;;14.90;99.90;;;;;;5056732;28;20387;-59
2022/09/15 04:03:43;;;;;;;8.98;1.50;;;14.90;99.90;;;;;;5075380;28;20040;-59
2022/09/15 04:06:09;;;;;;;5.90;1.77;;;14.90;99.90;;;;;;5073687;28;20127;-59
2022/09/15 04:08:35;;;;;;;6.05;1.80;;;14.90;99.90;;;;;;5056451;28;20036;-59
2022/09/15 04:11:05;;;;;;;4.47;1.25;;;14.90;99.90;;;;;;5074431;28;20076;-59
2022/09/15 04:13:31;;;;;;;7.53;2.00;;;14.90;99.90;;;;;;5074742;28;20051;-59
2022/09/15 04:16:02;;;;;;;4.50;1.25;;;14.90;99.90;;;;;;5055859;28;20036;-59
2022/09/15 04:18:29;;;;;;;6.93;1.83;;;14.90;99.90;;;;;;5073731;28;20059;-59
2022/09/15 04:20:59;;;;;;;7.47;1.10;;;15.00;99.90;;;;;;5055373;28;20048;-59
2022/09/15 04:23:25;;;;;;;3.70;1.08;;;15.00;99.90;;;;;;5074903;28;20079;-59
2022/09/15 04:25:58;;;;;;;5.70;1.05;;;15.10;99.90;;;;;;5056344;28;20060;-59
2022/09/15 04:28:26;;;;;;;4.25;1.10;;;15.10;99.90;;;;;;5074046;28;20053;-58
2022/09/15 04:30:53;;;;;;;5.80;1.63;;;15.00;99.90;;;;;;5056611;28;20072;-59
2022/09/15 04:33:19;;;;;;;5.03;1.10;;;15.00;99.90;;;;;;5074769;28;20040;-59
2022/09/15 04:35:45;;;;;;;4.40;1.38;;;15.00;99.90;;;;;;5072433;28;20043;-59
2022/09/15 04:38:10;;;;;;;5.90;1.15;;;15.00;99.90;;;;;;5074516;28;20032;-59
2022/09/15 04:40:37;;;;;;;4.65;1.20;;;15.00;99.90;;;;;;5056770;28;20095;-59
2022/09/15 04:43:03;;;;;;;6.50;1.50;;;15.00;99.90;;;;;;5055122;28;20044;-59
2022/09/15 04:45:29;;;;;;;4.32;1.35;;;14.90;99.90;;;;;;5074571;28;20048;-59
2022/09/15 04:47:55;;;;;;;5.70;1.50;;;14.90;99.90;;;;;;5056199;28;20040;-59
2022/09/15 04:50:20;;;;;;;4.97;1.10;;;14.80;99.90;;;;;;5073594;28;20041;-59
2022/09/15 04:52:47;;;;;;;9.27;1.63;;;14.80;99.90;;;;;;5073575;28;20036;-59
2022/09/15 04:55:12;;;;;;;5.32;1.40;;;14.70;99.90;;;;;;5056454;28;20091;-59
2022/09/15 04:57:38;;;;;;;8.40;1.67;;;14.70;99.90;;;;;;5073460;28;20071;-59
2022/09/15 05:00:06;;;;;;;8.98;1.90;;;14.70;99.90;;;;;;5073716;28;20323;-59
2022/09/15 05:02:32;;;;;;;6.47;1.40;;;14.60;99.90;;;;;;5056445;28;20048;-59
2022/09/15 05:04:58;;;;;;;6.45;1.77;;;14.60;99.90;;;;;;5071413;28;20047;-59
2022/09/15 05:07:23;;;;;;;5.03;1.38;;;14.60;99.90;;;;;;5073678;28;20032;-58
2022/09/15 05:09:49;;;;;;;8.88;1.45;;;14.50;99.90;;;;;;5073506;28;20044;-59
2022/09/15 05:12:15;;;;;;;10.57;1.90;;;14.50;99.90;;;;;;5071671;28;20045;-58
2022/09/15 05:14:41;;;;;;;9.45;1.90;;;14.40;99.90;;;;;;5072894;28;20498;-59
2022/09/15 05:17:07;;;;;;;5.82;1.70;;;14.30;99.90;;;;;;5071622;28;20067;-59
2022/09/15 05:19:33;;;;;;;9.75;1.73;;;14.30;99.90;;;;;;5072295;28;20044;-59
2022/09/15 05:21:58;;;;;;;6.13;1.40;;;14.20;99.90;;;;;;5072982;28;20063;-59
2022/09/15 05:24:24;;;;;;;5.10;1.30;;;14.10;99.90;;;;;;5071595;28;20056;-59
2022/09/15 05:26:49;;;;;;;11.38;2.13;;;14.00;99.90;;;;;;5072438;28;20044;-59
2022/09/15 05:29:15;;;;;;;5.97;1.63;;;14.00;99.90;;;;;;5073637;28;20444;-59
2022/09/15 05:31:41;;;;;;;10.55;1.70;;;14.00;99.90;;;;;;5072665;28;20041;-59
2022/09/15 05:34:06;;;;;;;6.82;1.92;;;14.00;99.90;;;;;;5072887;28;20041;-59
2022/09/15 05:36:33;;;;;;;9.05;1.60;;;14.00;99.90;;;;;;5075066;28;20037;-59
2022/09/15 05:39:00;;;;;;;7.00;1.92;;;14.00;99.90;;;;;;5112797;28;20042;-59
2022/09/15 05:41:27;;;;;;;18.15;1.65;;;14.00;99.90;;;;;;5105740;28;20044;-59
2022/09/15 05:43:55;;;;;;;5.57;1.50;;;14.00;99.90;;;;;;5074908;28;20047;-59
2022/09/15 05:46:24;;;;;;;5.97;1.33;;;14.00;99.90;;;;;;5057960;28;20035;-58
2022/09/15 05:48:53;;;;;;;5.40;1.30;;;14.10;99.90;;;;;;5074673;28;20047;-59
2022/09/15 05:51:20;;;;;;;6.57;1.30;;;14.10;99.90;;;;;;5093274;28;20057;-59
2022/09/15 05:53:45;;;;;;;8.38;1.92;;;14.10;99.90;;;;;;5074396;28;20044;-59
2022/09/15 05:56:13;;;;;;;4.93;1.63;;;14.10;99.90;;;;;;5091712;28;20036;-58
2022/09/15 05:58:41;;;;;;;7.60;1.50;;;14.30;99.90;;;;;;5081413;28;20040;-59
2022/09/15 06:01:16;;;;;;;7.38;1.63;;;14.40;99.90;;;;;;5086702;28;20449;-59
2022/09/15 06:03:42;;;;;;;6.57;1.55;;;14.40;99.90;;;;;;5092778;28;20050;-59
2022/09/15 06:06:08;;;;;;;6.78;1.40;;;14.50;99.90;;;;;;5074574;28;20076;-59
2022/09/15 06:08:42;;;;;;;8.57;2.47;;;14.60;99.90;;;;;;5073088;28;20079;-59
2022/09/15 06:11:14;;;;;;;4.43;1.45;;;14.70;99.90;;;;;;5072310;28;20049;-58
2022/09/15 06:13:40;;;;;;;6.10;1.85;;;14.70;99.90;;;;;;5072280;28;20044;-59
2022/09/15 06:16:12;;;;;;;9.57;1.70;;;14.70;99.90;;;;;;5069671;28;20083;-59
2022/09/15 06:18:39;;;;;;;4.82;1.58;;;14.80;99.90;;;;;;5051028;28;20371;-59
2022/09/15 06:21:11;;;;;;;8.88;1.95;;;14.80;99.90;;;;;;5066611;28;20152;-59
2022/09/15 06:23:37;;;;;;;6.00;2.42;;;14.90;99.90;;;;;;5090340;28;20083;-58
2022/09/15 06:26:17;;;;;;;4.90;1.10;;;14.90;99.90;;;;;;5071194;28;20438;-59
2022/09/15 06:28:57;;;;;;;7.30;1.75;;;15.00;99.90;;;;;;5088887;28;20036;-59
2022/09/15 06:31:25;;;;;;;5.60;1.30;;;15.00;99.90;;;;;;5089907;28;20044;-59
2022/09/15 06:33:53;;;;;;;4.28;1.30;;;15.00;99.90;;;;;;5089378;28;20040;-58
2022/09/15 06:36:21;;;;;;;4.38;1.20;;;15.00;99.90;;;;;;5070445;28;20507;-59
2022/09/15 06:38:47;;;;;;;4.57;1.45;;;15.00;99.90;;;;;;5070103;28;20401;-58
2022/09/15 06:41:13;;;;;;;4.68;0.80;;;15.00;99.90;;;;;;5071488;28;20126;-59
2022/09/15 06:43:39;;;;;;;2.92;0.70;;;15.10;99.90;;;;;;5054111;28;20039;-59
2022/09/15 06:46:17;;;;;;;5.72;2.20;;;15.10;99.90;;;;;;5089416;28;20047;-59
2022/09/15 06:48:43;;;;;;;3.72;1.00;;;15.20;99.90;;;;;;5070212;28;20054;-59
2022/09/15 06:51:10;;;;;;;3.38;1.55;;;15.20;99.90;;;;;;5050945;28;20060;-59
2022/09/15 06:53:37;;;;;;;6.72;1.60;;;15.20;99.90;;;;;;5051492;28;20036;-59
2022/09/15 06:56:09;;;;;;;4.18;1.38;;;15.20;99.90;;;;;;5068061;28;20041;-59
2022/09/15 06:58:36;;;;;;;4.13;1.50;;;15.20;99.90;;;;;;5051689;28;20127;-59
2022/09/15 07:01:11;;;;;;;5.10;2.05;;;15.20;99.90;;;;;;5068916;28;20052;-59
2022/09/15 07:03:37;;;;;;;8.20;2.30;;;15.10;99.90;;;;;;5050224;28;20040;-59
2022/09/15 07:06:05;;;;;;;10.75;1.40;;;15.10;99.90;;;;;;5087048;28;20132;-59
2022/09/15 07:08:30;;;;;;;4.60;1.40;;;15.10;99.90;;;;;;5083730;28;20043;-59
2022/09/15 07:10:56;;;;;;;5.53;1.80;;;15.00;99.90;;;;;;5069219;28;20052;-59
2022/09/15 07:13:22;;;;;;;5.78;1.42;;;14.90;99.90;;;;;;5071060;28;20556;-59
2022/09/15 07:15:50;;;;;;;4.95;1.52;;;14.90;99.90;;;;;;5070160;28;20044;-59
2022/09/15 07:18:16;;;;;;;11.23;6.80;;;14.90;99.90;;;;;;5084438;28;20512;-59
2022/09/15 07:20:42;;;;;;;8.32;3.55;;;14.90;99.90;;;;;;5088542;28;20036;-59
2022/09/15 07:23:07;;;;;;;5.28;2.50;;;14.90;99.90;;;;;;5070114;28;20048;-59
2022/09/15 07:25:33;;;;;;;6.60;2.08;;;14.80;99.90;;;;;;5073234;28;20044;-59
2022/09/15 07:27:59;;;;;;;8.15;1.70;;;14.80;99.90;;;;;;5056993;28;20075;-59
2022/09/15 07:30:24;;;;;;;6.40;1.20;;;14.80;99.90;;;;;;5088936;28;20519;-59
2022/09/15 07:32:51;;;;;;;8.65;1.45;;;14.80;99.90;;;;;;5052778;28;20518;-59
2022/09/15 07:35:17;;;;;;;7.18;1.40;;;14.80;99.90;;;;;;5087905;28;20115;-59
2022/09/15 07:37:43;;;;;;;8.25;1.10;;;14.80;99.90;;;;;;5070486;28;20051;-59
2022/09/15 07:40:10;;;;;;;6.05;1.75;;;14.80;99.90;;;;;;5060740;28;20429;-59
2022/09/15 07:42:36;;;;;;;7.10;1.23;;;14.90;99.90;;;;;;5086356;28;20044;-59
2022/09/15 07:45:02;;;;;;;5.68;1.40;;;15.00;99.90;;;;;;5069522;28;20102;-59
2022/09/15 07:47:28;;;;;;;7.30;1.30;;;15.10;99.90;;;;;;5070611;28;20504;-59
2022/09/15 07:49:54;;;;;;;6.32;1.48;;;15.30;99.90;;;;;;5072478;28;20059;-59
2022/09/15 07:52:20;;;;;;;5.63;1.23;;;15.50;99.90;;;;;;5091576;28;20044;-59
2022/09/15 07:54:45;;;;;;;6.32;1.55;;;15.70;99.90;;;;;;5091855;28;20131;-59
2022/09/15 07:57:11;;;;;;;9.23;1.52;;;15.80;99.90;;;;;;5083216;28;20036;-59
2022/09/15 07:59:36;;;;;;;13.52;2.45;;;16.00;99.90;;;;;;5074027;28;20040;-59
2022/09/15 08:02:02;;;;;;;8.35;1.50;;;16.10;99.90;;;;;;5084524;28;20044;-59
2022/09/15 08:04:29;;;;;;;5.35;1.77;;;16.20;99.90;;;;;;5066887;28;20130;-59
2022/09/15 08:06:55;;;;;;;7.85;1.67;;;16.20;99.90;;;;;;5061198;28;20130;-59
2022/09/15 08:09:21;;;;;;;6.03;1.77;;;16.20;99.90;;;;;;5086002;28;20464;-59
2022/09/15 08:11:47;;;;;;;6.45;1.73;;;16.30;99.90;;;;;;5056794;28;20043;-60
2022/09/15 08:14:13;;;;;;;6.60;1.67;;;16.30;99.90;;;;;;5048604;28;20038;-59
2022/09/15 08:16:39;;;;;;;6.43;1.38;;;16.30;99.90;;;;;;5099923;28;20031;-60
2022/09/15 08:19:05;;;;;;;2.85;1.00;;;16.30;99.90;;;;;;5101185;28;20047;-59
2022/09/15 08:21:31;;;;;;;5.10;1.45;;;16.30;99.90;;;;;;5075482;28;20461;-59
2022/09/15 08:23:58;;;;;;;4.82;1.27;;;16.30;99.90;;;;;;5072296;28;20070;-59
2022/09/15 08:26:26;;;;;;;3.53;1.15;;;16.30;99.90;;;;;;5071362;28;20055;-59
2022/09/15 08:28:52;;;;;;;4.22;1.23;;;16.30;99.90;;;;;;5064986;28;20139;-59
2022/09/15 08:31:18;;;;;;;4.40;0.82;;;16.40;99.90;;;;;;5083515;28;20143;-59
2022/09/15 08:33:49;;;;;;;6.90;1.13;;;16.40;99.90;;;;;;5067600;28;20086;-59
2022/09/15 08:36:14;;;;;;;3.38;1.10;;;16.40;99.90;;;;;;5076053;28;20040;-59
2022/09/15 08:38:43;;;;;;;8.32;1.88;;;16.30;99.90;;;;;;5089568;28;20062;-59
2022/09/15 08:41:31;;;;;;;3.67;1.00;;;16.40;99.90;;;;;;5055047;28;20127;-59
2022/09/15 08:44:27;;;;;;;3.72;0.98;;;16.30;99.90;;;;;;5068162;28;20054;-59
2022/09/15 08:47:21;;;;;;;11.82;2.08;;;16.20;99.90;;;;;;5092296;28;20039;-59
2022/09/15 08:50:02;;;;;;;6.22;1.30;;;16.10;99.90;;;;;;5074910;28;20040;-59
2022/09/15 08:52:37;;;;;;;4.97;1.38;;;16.10;99.90;;;;;;5076397;28;20210;-59
2022/09/15 08:55:16;;;;;;;3.88;1.08;;;16.20;99.90;;;;;;5075976;28;20043;-59
2022/09/15 08:57:43;;;;;;;10.15;1.63;;;16.20;99.90;;;;;;5094559;28;20036;-59
2022/09/15 09:00:15;;;;;;;6.22;2.17;;;16.10;99.90;;;;;;5075169;28;20040;-59
2022/09/15 09:03:02;;;;;;;4.95;1.20;;;16.10;99.90;;;;;;5057788;28;20083;-59
2022/09/15 09:06:09;;;;;;;8.63;1.30;;;15.90;99.90;;;;;;5088896;28;20086;-59
2022/09/15 09:09:00;;;;;;;5.00;1.88;;;15.70;99.90;;;;;;5043158;28;20083;-59
2022/09/15 09:11:37;;;;;;;2.97;1.02;;;15.50;99.90;;;;;;5073123;28;20040;-59
2022/09/15 09:14:28;;;;;;;4.13;1.10;;;15.30;99.90;;;;;;5055449;28;20036;-59
2022/09/15 09:17:20;;;;;;;7.80;1.80;;;15.20;99.90;;;;;;5055647;28;20032;-59
2022/09/15 09:20:23;;;;;;;6.45;1.75;;;15.10;99.90;;;;;;5057908;28;20055;-59
2022/09/15 09:22:52;;;;;;;6.07;1.40;;;15.10;99.90;;;;;;5055048;28;20067;-59
2022/09/15 09:25:20;;;;;;;5.57;1.48;;;15.30;99.90;;;;;;5064040;28;20044;-59
2022/09/15 09:27:46;;;;;;;5.25;1.38;;;15.50;99.90;;;;;;5105541;28;20043;-59
2022/09/15 09:30:14;;;;;;;5.15;1.50;;;15.60;99.90;;;;;;5111077;28;20460;-59
2022/09/15 09:32:45;;;;;;;4.50;1.65;;;15.80;99.90;;;;;;5092845;28;20496;-59
2022/09/15 09:35:36;;;;;;;8.48;1.50;;;15.80;99.90;;;;;;5075830;28;20043;-59
2022/09/15 09:38:03;;;;;;;5.53;1.42;;;15.90;99.90;;;;;;5091975;28;20036;-59
2022/09/15 09:40:30;;;;;;;6.07;1.58;;;15.80;99.90;;;;;;5075869;28;20032;-60
2022/09/15 09:42:56;;;;;;;5.78;1.75;;;15.90;99.90;;;;;;5082899;28;20498;-59
2022/09/15 09:45:23;;;;;;;5.10;1.30;;;16.00;99.90;;;;;;5078380;28;20036;-59
2022/09/15 09:47:48;;;;;;;3.90;1.02;;;16.20;99.90;;;;;;5095083;28;20044;-59
2022/09/15 09:50:41;;;;;;;4.22;1.17;;;16.50;99.90;;;;;;5113789;28;20479;-59
2022/09/15 09:53:31;;;;;;;4.78;1.45;;;16.80;99.90;;;;;;5103521;28;20064;-60
2022/09/15 09:56:21;;;;;;;8.95;1.90;;;17.10;99.90;;;;;;5079514;28;20033;-59
2022/09/15 09:58:47;;;;;;;6.63;1.63;;;17.00;99.90;;;;;;5112471;28;20079;-59
2022/09/15 10:01:18;;;;;;;6.32;1.45;;;16.60;99.90;;;;;;5080018;28;20040;-59
2022/09/15 10:03:44;;;;;;;2.97;1.10;;;16.40;99.90;;;;;;5055365;28;20123;-58
2022/09/15 10:06:15;;;;;;;5.53;1.15;;;16.20;99.90;;;;;;5072703;28;20067;-59
2022/09/15 10:08:57;;;;;;;4.18;1.30;;;16.10;99.90;;;;;;5073946;28;20040;-59
2022/09/15 10:11:43;;;;;;;4.15;1.02;;;16.10;99.90;;;;;;5066210;28;20374;-58
2022/09/15 10:14:18;;;;;;;6.07;1.50;;;16.10;99.90;;;;;;5077075;28;20241;-58
2022/09/15 10:17:03;;;;;;;7.40;1.20;;;16.00;99.90;;;;;;5092925;28;20074;-58
2022/09/15 10:19:32;;;;;;;7.00;1.27;;;16.00;99.90;;;;;;5056725;28;20047;-58
2022/09/15 10:21:59;;;;;;;5.63;1.48;;;16.10;99.90;;;;;;5055432;28;20301;-58
2022/09/15 10:24:40;;;;;;;5.45;1.55;;;16.10;99.90;;;;;;5092730;28;20040;-58
2022/09/15 10:27:19;;;;;;;7.25;1.60;;;16.20;99.90;;;;;;5090638;28;20097;-59
2022/09/15 10:29:46;;;;;;;6.22;1.33;;;16.30;99.90;;;;;;5071092;28;20492;-59
2022/09/15 10:32:30;;;;;;;5.38;1.55;;;16.30;99.90;;;;;;5070197;28;20400;-58
2022/09/15 10:35:10;;;;;;;10.35;1.90;;;16.30;99.90;;;;;;5089225;28;20039;-58
2022/09/15 10:37:54;;;;;;;5.72;1.42;;;16.40;99.90;;;;;;5059763;28;20525;-58
2022/09/15 10:40:40;;;;;;;6.85;1.60;;;16.40;99.90;;;;;;5054287;28;20063;-59
2022/09/15 10:43:32;;;;;;;8.45;1.20;;;16.40;99.90;;;;;;5083391;28;20052;-59
2022/09/15 10:46:09;;;;;;;4.53;1.17;;;16.50;99.90;;;;;;5072893;28;20048;-58
2022/09/15 10:48:38;;;;;;;6.57;1.13;;;16.50;99.90;;;;;;5054781;28;20110;-58
2022/09/15 10:51:32;;;;;;;5.57;1.42;;;16.60;99.90;;;;;;5091471;28;20047;-59
2022/09/15 10:54:27;;;;;;;6.78;1.50;;;16.80;99.90;;;;;;5073955;28;20048;-59
2022/09/15 10:57:05;;;;;;;2.50;0.77;;;16.90;99.90;;;;;;5077211;28;20032;-59
2022/09/15 11:00:11;;;;;;;4.70;0.95;;;17.10;99.90;;;;;;5072245;28;20043;-59
2022/09/15 11:03:00;;;;;;;3.45;0.80;;;17.10;99.90;;;;;;4992353;28;20045;-59
2022/09/15 11:05:43;;;;;;;3.35;1.13;;;17.20;99.90;;;;;;5086201;28;20079;-58
2022/09/15 11:08:40;;;;;;;1.65;0.70;;;17.30;99.50;;;;;;5082892;28;20453;-59
2022/09/15 11:11:43;;;;;;;4.88;1.08;;;17.30;97.40;;;;;;5090663;28;20055;-58
2022/09/15 11:14:31;;;;;;;3.45;0.80;;;17.40;97.90;;;;;;5072678;28;20458;-58
2022/09/15 11:17:08;;;;;;;1.90;0.70;;;17.30;98.10;;;;;;5070719;28;20095;-58
2022/09/15 11:19:43;;;;;;;4.03;0.90;;;17.40;98.30;;;;;;5089210;28;20046;-59
2022/09/15 11:22:26;;;;;;;3.80;1.00;;;17.40;98.40;;;;;;5108158;28;20166;-58
2022/09/15 11:25:11;;;;;;;4.97;1.10;;;17.40;95.60;;;;;;5092648;28;20136;-58
2022/09/15 11:27:54;;;;;;;5.88;1.27;;;17.50;96.70;;;;;;5074875;28;20104;-58
2022/09/15 11:30:28;;;;;;;4.53;1.20;;;17.60;98.30;;;;;;5057123;28;20052;-58
2022/09/15 11:33:03;;;;;;;11.13;1.63;;;17.70;97.60;;;;;;5074120;28;20075;-58
2022/09/15 11:36:01;;;;;;;4.85;1.25;;;17.70;98.40;;;;;;5084871;28;20319;-58
2022/09/15 11:38:58;;;;;;;5.35;1.25;;;17.80;99.90;;;;;;5057394;28;20037;-58
2022/09/15 11:41:34;;;;;;;6.22;1.60;;;17.80;99.90;;;;;;5086392;28;20369;-58
2022/09/15 11:44:12;;;;;;;6.10;1.23;;;17.60;99.90;;;;;;5076548;28;20123;-58
2022/09/15 11:46:57;;;;;;;6.78;1.63;;;17.70;99.90;;;;;;5084269;28;20048;-59
2022/09/15 11:49:34;;;;;;;5.15;1.20;;;17.60;99.90;;;;;;5099359;28;20485;-65
2022/09/15 11:52:11;;;;;;;7.82;1.30;;;17.60;99.90;;;;;;5061677;28;20131;-64
2022/09/15 11:54:43;;;;;;;4.05;1.20;;;17.60;99.90;;;;;;5094883;28;20073;-64
2022/09/15 11:57:20;;;;;;;5.57;1.42;;;17.60;99.90;;;;;;5076515;28;20358;-58
2022/09/15 11:59:54;;;;;;;5.90;0.80;;;17.50;99.90;;;;;;5089953;28;20377;-59
2022/09/15 12:02:27;;;;;;;6.05;1.00;;;17.50;99.90;;;;;;5086953;28;20045;-58
2022/09/15 12:05:22;;;;;;;3.63;1.00;;;17.50;99.90;;;;;;5076953;28;20041;-59
2022/09/15 12:08:17;;;;;;;3.35;1.13;;;17.50;99.40;;;;;;5072077;28;20063;-60
2022/09/15 12:10:48;;;;;;;3.25;0.93;;;17.70;99.80;;;;;;5071899;28;21395;-60
2022/09/15 12:13:17;;;;;;;2.05;0.80;;;17.80;99.90;;;;;;5070249;28;20127;-59
2022/09/15 12:15:44;;;;;;;4.63;1.17;;;17.90;99.80;;;;;;5087181;28;20040;-59
2022/09/15 12:18:31;;;;;;;4.88;1.30;;;17.90;98.30;;;;;;5067438;28;20552;-59
2022/09/15 12:21:30;;;;;;;3.67;0.73;;;17.70;97.00;;;;;;5092808;28;20047;-59
2022/09/15 12:24:16;;;;;;;3.10;0.93;;;17.60;97.20;;;;;;5093755;28;20043;-59
2022/09/15 12:26:47;;;;;;;4.53;1.20;;;17.50;97.50;;;;;;5093634;28;20032;-59
2022/09/15 12:29:49;;;;;;;7.13;1.60;;;17.50;98.70;;;;;;5076484;28;20484;-59
2022/09/15 12:32:23;;;;;;;8.65;1.70;;;17.40;99.90;;;;;;5077363;28;20044;-59
2022/09/15 12:35:01;;;;;;;8.07;2.30;;;17.20;99.90;;;;;;5059782;28;20041;-59
2022/09/15 12:37:41;;;;;;;8.13;1.67;;;17.00;99.90;;;;;;5073691;28;20110;-59
2022/09/15 12:40:24;;;;;;;8.02;1.67;;;16.90;99.90;;;;;;5055717;28;20461;-59
2022/09/15 12:42:51;;;;;;;6.35;2.38;;;16.90;99.90;;;;;;5055437;28;20562;-60
2022/09/15 12:45:24;;;;;;;4.15;0.88;;;16.80;99.90;;;;;;5056295;28;20055;-60
2022/09/15 12:47:54;;;;;;;5.50;1.23;;;16.70;99.90;;;;;;5076709;28;20040;-60
2022/09/15 12:50:35;;;;;;;4.10;0.93;;;16.70;99.90;;;;;;5081613;28;20039;-60
2022/09/15 12:53:17;;;;;;;4.28;1.20;;;16.60;99.90;;;;;;5099399;28;20430;-60
2022/09/15 12:55:50;;;;;;;5.28;1.00;;;16.60;99.90;;;;;;5081975;28;20040;-60
2022/09/15 12:58:27;;;;;;;3.70;1.33;;;16.70;99.90;;;;;;5080127;28;20058;-60
2022/09/15 13:01:21;;;;;;;5.30;1.13;;;16.80;99.90;;;;;;5092848;28;20495;-59
2022/09/15 13:03:48;;;;;;;6.25;1.13;;;16.90;99.90;;;;;;5092774;28;20029;-59
2022/09/15 13:06:32;;;;;;;7.20;1.30;;;17.10;99.90;;;;;;5094505;28;20451;-59
2022/09/15 13:09:01;;;;;;;5.82;1.98;;;17.10;99.90;;;;;;5093105;28;20044;-59
2022/09/15 13:11:38;;;;;;;5.32;1.40;;;17.00;99.90;;;;;;5094343;28;20496;-59
2022/09/15 13:14:07;;;;;;;5.35;1.40;;;16.90;99.90;;;;;;5075486;28;20047;-59
2022/09/15 13:16:55;;;;;;;5.47;1.98;;;16.90;99.90;;;;;;5093241;28;20055;-59